Time;durP1;ratioP1;P1;durP2;ratioP2;P2;SDS_P1;SDS_P2;PMS_P1;PMS_P2;Temp;Humidity;BMP_temperature;BMP_pressure;BME280_temperature;BME280_humidity;BME280_pressure;Samples;Min_cycle;Max_cycle;Signal;HPM_P1;HPM_P2
2023/09/11 00:01:18;;;;;;;7.07;3.33;;;;;;;21.99;59.93;101276.16;5033139;28;20090;-44
2023/09/11 00:03:44;;;;;;;9.60;3.60;;;;;;;21.55;61.86;101285.63;5033450;28;20053;-45
2023/09/11 00:06:10;;;;;;;9.07;3.72;;;;;;;21.57;61.92;101285.34;5033052;28;20029;-43
2023/09/11 00:08:37;;;;;;;9.85;4.25;;;;;;;21.85;61.12;101276.66;5033137;28;20033;-46
2023/09/11 00:11:04;;;;;;;9.70;4.00;;;;;;;21.85;60.91;101276.66;5033113;28;20044;-48
2023/09/11 00:13:31;;;;;;;9.88;4.30;;;;;;;21.47;61.95;101271.69;5033093;28;20043;-47
2023/09/11 00:15:58;;;;;;;9.90;3.90;;;;;;;21.33;62.75;101279.56;5032910;28;20022;-48
2023/09/11 00:18:24;;;;;;;8.38;3.65;;;;;;;21.47;62.38;101277.13;5033002;28;20090;-48
2023/09/11 00:20:50;;;;;;;12.55;4.63;;;;;;;21.46;62.50;101270.06;5032938;28;20040;-45
2023/09/11 00:23:17;;;;;;;10.45;4.10;;;;;;;21.33;62.78;101276.84;5033065;28;20013;-46
2023/09/11 00:25:43;;;;;;;13.65;4.05;;;;;;;21.11;62.31;101273.44;5032897;28;20478;-45
2023/09/11 00:28:10;;;;;;;8.80;3.53;;;;;;;21.20;62.79;101271.84;5033257;28;20026;-45
2023/09/11 00:30:37;;;;;;;6.90;3.72;;;;;;;20.98;62.90;101272.00;5032849;28;20036;-46
2023/09/11 00:33:03;;;;;;;6.50;3.97;;;;;;;20.79;63.41;101268.94;5032854;28;20105;-46
2023/09/11 00:35:30;;;;;;;8.18;4.20;;;;;;;20.66;64.84;101275.66;5032712;28;20073;-45
2023/09/11 00:37:56;;;;;;;9.52;4.22;;;;;;;20.52;64.63;101264.41;5033155;28;20144;-48
2023/09/11 00:40:22;;;;;;;10.20;4.85;;;;;;;20.49;65.18;101264.13;5032844;28;20037;-47
2023/09/11 00:42:49;;;;;;;6.43;3.47;;;;;;;20.54;65.37;101270.44;5032759;28;20036;-45
2023/09/11 00:45:15;;;;;;;9.45;4.05;;;;;;;20.51;65.56;101272.84;5032748;28;20037;-46
2023/09/11 00:47:44;;;;;;;9.05;4.20;;;;;;;20.39;66.40;101272.19;5032853;28;20060;-44
2023/09/11 00:50:11;;;;;;;9.60;3.70;;;;;;;20.54;65.46;101275.88;5032670;28;20091;-47
2023/09/11 00:52:40;;;;;;;9.15;4.05;;;;;;;20.14;67.49;101278.22;5032771;28;20030;-48
2023/09/11 00:55:09;;;;;;;7.90;3.92;;;;;;;19.93;68.40;101279.94;5032547;28;20025;-45
2023/09/11 00:57:36;;;;;;;13.60;4.60;;;;;;;19.68;69.54;101281.34;5032738;28;20477;-44
2023/09/11 01:00:04;;;;;;;11.65;4.50;;;;;;;19.91;68.50;101276.66;5032576;28;20030;-45
2023/09/11 01:02:31;;;;;;;8.70;3.95;;;;;;;19.89;69.22;101276.13;5032622;28;20033;-46
2023/09/11 01:05:00;;;;;;;10.73;4.32;;;;;;;19.80;69.78;101275.75;5032464;28;20079;-45
2023/09/11 01:07:26;;;;;;;14.98;4.47;;;;;;;19.74;70.20;101279.50;5032558;28;20470;-45
2023/09/11 01:09:52;;;;;;;12.70;5.05;;;;;;;19.58;70.44;101280.38;5032833;28;20047;-47
2023/09/11 01:12:19;;;;;;;8.38;4.18;;;;;;;19.53;70.83;101271.09;5032432;28;20088;-46
2023/09/11 01:14:45;;;;;;;13.55;4.45;;;;;;;19.36;71.80;101270.34;5032371;28;20026;-45
2023/09/11 01:17:29;;;;;;;12.73;4.60;;;;;;;19.51;71.53;101269.72;5032412;28;20053;-46
2023/09/11 01:20:16;;;;;;;14.70;5.28;;;;;;;19.30;71.97;101276.00;5032871;28;20025;-44
2023/09/11 01:23:19;;;;;;;13.80;4.53;;;;;;;19.32;72.65;101276.53;5033970;28;20045;-44
2023/09/11 01:26:26;;;;;;;14.55;4.70;;;;;;;19.39;72.02;101278.00;5035951;28;20105;-48
2023/09/11 01:29:11;;;;;;;16.85;5.15;;;;;;;19.25;73.26;101276.75;5034065;28;20034;-46
2023/09/11 01:31:38;;;;;;;11.10;4.53;;;;;;;19.36;73.35;101272.25;5035983;28;20083;-45
2023/09/11 01:34:06;;;;;;;12.98;4.65;;;;;;;19.36;72.90;101280.41;5035860;28;20029;-45
2023/09/11 01:36:33;;;;;;;13.45;5.22;;;;;;;19.20;73.46;101279.41;5035612;28;20132;-46
2023/09/11 01:39:00;;;;;;;17.00;5.45;;;;;;;18.85;74.81;101280.56;5035718;28;20025;-46
2023/09/11 01:41:39;;;;;;;14.68;4.88;;;;;;;18.87;74.73;101280.31;5035694;28;20076;-47
2023/09/11 01:44:09;;;;;;;14.27;4.85;;;;;;;18.89;74.66;101278.19;5035737;28;20018;-44
2023/09/11 01:46:36;;;;;;;15.02;4.90;;;;;;;18.84;74.47;101273.50;5035590;28;20486;-45
2023/09/11 01:49:05;;;;;;;11.82;4.80;;;;;;;18.82;73.99;101272.97;5035547;28;20045;-45
2023/09/11 01:51:32;;;;;;;8.90;4.53;;;;;;;18.76;73.95;101276.63;5036083;28;20083;-47
2023/09/11 01:53:59;;;;;;;13.43;4.50;;;;;;;18.75;73.57;101269.59;5035588;28;20164;-44
2023/09/11 01:56:26;;;;;;;13.00;4.82;;;;;;;18.23;75.65;101277.16;5035437;28;20032;-48
2023/09/11 01:58:55;;;;;;;11.73;5.10;;;;;;;18.51;74.23;101271.66;5035371;28;20028;-46
2023/09/11 02:01:21;;;;;;;13.75;5.47;;;;;;;18.42;74.63;101278.53;5035266;28;20028;-47
2023/09/11 02:03:47;;;;;;;16.73;4.80;;;;;;;18.32;74.28;101291.94;5035864;28;20052;-44
2023/09/11 02:06:13;;;;;;;9.50;4.50;;;;;;;18.35;74.46;101277.91;5035320;28;20075;-46
2023/09/11 02:08:39;;;;;;;15.75;5.78;;;;;;;18.26;74.52;101290.22;5035291;28;20033;-45
2023/09/11 02:11:07;;;;;;;13.40;4.90;;;;;;;18.23;74.44;101286.13;5035125;28;20029;-44
2023/09/11 02:13:35;;;;;;;10.68;4.63;;;;;;;18.15;75.39;101290.03;5035406;28;20055;-47
2023/09/11 02:16:01;;;;;;;15.10;4.65;;;;;;;18.26;74.55;101282.91;5035700;28;20030;-47
2023/09/11 02:18:28;;;;;;;9.13;4.57;;;;;;;18.19;74.79;101282.25;5035694;28;20026;-48
2023/09/11 02:20:54;;;;;;;12.00;4.78;;;;;;;18.21;74.62;101282.81;5035401;28;20025;-46
2023/09/11 02:23:22;;;;;;;10.63;4.28;;;;;;;18.30;73.90;101273.22;5034885;28;20047;-46
2023/09/11 02:25:48;;;;;;;10.77;4.55;;;;;;;18.26;73.74;101288.31;5035309;28;20420;-44
2023/09/11 02:28:15;;;;;;;9.13;4.22;;;;;;;18.24;73.64;101281.53;5034995;28;20033;-44
2023/09/11 02:30:41;;;;;;;15.75;4.53;;;;;;;18.26;73.50;101274.78;5034803;28;20030;-45
2023/09/11 02:33:07;;;;;;;10.23;4.32;;;;;;;18.14;74.43;101266.72;5034785;28;20385;-46
2023/09/11 02:35:34;;;;;;;9.48;4.05;;;;;;;18.07;74.51;101271.50;5034485;28;20038;-44
2023/09/11 02:38:00;;;;;;;9.05;4.30;;;;;;;18.18;74.31;101269.78;5034766;28;20021;-46
2023/09/11 02:40:26;;;;;;;16.77;5.10;;;;;;;18.15;74.88;101268.38;5035396;28;20021;-45
2023/09/11 02:42:52;;;;;;;12.57;4.45;;;;;;;18.08;75.08;101270.41;5034944;28;20017;-45
2023/09/11 02:45:19;;;;;;;11.25;4.60;;;;;;;18.07;75.47;101267.97;5034539;28;20017;-45
2023/09/11 02:47:45;;;;;;;13.68;4.50;;;;;;;18.28;74.72;101275.38;5034484;28;20433;-45
2023/09/11 02:50:11;;;;;;;14.90;4.85;;;;;;;18.10;75.40;101275.59;5034425;28;20030;-45
2023/09/11 02:52:37;;;;;;;11.85;4.35;;;;;;;18.12;75.80;101276.19;5035308;28;20163;-44
2023/09/11 02:55:04;;;;;;;9.35;3.97;;;;;;;18.26;75.50;101268.53;5034340;28;20025;-44
2023/09/11 02:57:30;;;;;;;8.18;4.07;;;;;;;18.15;75.68;101272.97;5035094;28;20103;-45
2023/09/11 02:59:57;;;;;;;12.85;4.50;;;;;;;18.33;74.78;101270.03;5034228;28;20033;-45
2023/09/11 03:02:23;;;;;;;11.80;4.30;;;;;;;18.18;75.47;101273.31;5034605;28;20022;-45
2023/09/11 03:04:52;;;;;;;11.55;4.28;;;;;;;18.15;75.61;101268.38;5034414;28;20473;-45
2023/09/11 03:07:20;;;;;;;15.65;5.35;;;;;;;18.11;75.77;101275.38;5034115;28;20029;-46
2023/09/11 03:09:46;;;;;;;12.55;5.47;;;;;;;18.18;75.41;101265.19;5034022;28;20033;-45
2023/09/11 03:12:13;;;;;;;13.18;5.60;;;;;;;18.19;75.46;101274.94;5033982;28;20033;-44
2023/09/11 03:14:40;;;;;;;13.40;5.20;;;;;;;18.20;75.71;101273.88;5034115;28;20385;-44
2023/09/11 03:17:07;;;;;;;12.02;4.53;;;;;;;18.25;75.93;101272.31;5034026;28;20382;-46
2023/09/11 03:19:34;;;;;;;10.68;4.57;;;;;;;18.25;75.61;101272.31;5034044;28;20037;-43
2023/09/11 03:22:01;;;;;;;12.27;5.20;;;;;;;18.20;76.21;101275.75;5034055;28;20030;-43
2023/09/11 03:24:27;;;;;;;11.05;4.78;;;;;;;18.19;76.24;101274.13;5049480;28;20099;-43
2023/09/11 03:26:53;;;;;;;12.77;4.82;;;;;;;17.91;77.00;101273.13;5034097;28;20029;-43
2023/09/11 03:29:20;;;;;;;13.95;4.13;;;;;;;18.18;76.08;101278.72;5033667;28;20036;-44
2023/09/11 03:31:49;;;;;;;11.63;4.57;;;;;;;18.19;75.90;101276.84;5033652;28;20413;-44
2023/09/11 03:34:15;;;;;;;9.02;5.38;;;;;;;18.00;77.00;101287.09;5033827;28;20036;-45
2023/09/11 03:36:42;;;;;;;11.23;4.72;;;;;;;18.11;76.45;101285.38;5033673;28;20120;-43
2023/09/11 03:39:08;;;;;;;11.27;5.05;;;;;;;18.02;76.60;101284.13;5033932;28;20029;-44
2023/09/11 03:41:35;;;;;;;11.50;5.45;;;;;;;17.96;76.72;101296.75;5033548;28;20083;-43
2023/09/11 03:44:01;;;;;;;11.57;5.50;;;;;;;17.87;77.08;101298.22;5033745;28;20394;-43
2023/09/11 03:46:27;;;;;;;10.40;5.20;;;;;;;18.07;76.59;101293.16;5033007;28;20025;-43
2023/09/11 03:48:54;;;;;;;14.43;5.60;;;;;;;18.11;75.95;101288.91;5033424;28;20044;-43
2023/09/11 03:51:20;;;;;;;16.85;5.97;;;;;;;17.93;76.85;101297.22;5033219;28;20072;-43
2023/09/11 03:53:49;;;;;;;13.55;5.40;;;;;;;17.97;77.17;101303.81;5033207;28;20040;-47
2023/09/11 03:56:16;;;;;;;14.52;4.78;;;;;;;17.83;78.09;101308.72;5033175;28;20033;-45
2023/09/11 03:58:44;;;;;;;7.38;4.82;;;;;;;17.93;77.93;101302.66;5033316;28;20022;-45
2023/09/11 04:01:10;;;;;;;11.18;5.47;;;;;;;17.85;77.97;101303.06;5033294;28;20026;-46
2023/09/11 04:03:36;;;;;;;12.00;4.97;;;;;;;17.89;77.72;101305.03;5033288;28;20029;-46
2023/09/11 04:06:03;;;;;;;17.33;5.30;;;;;;;18.01;76.79;101309.56;5033070;28;20022;-46
2023/09/11 04:08:29;;;;;;;11.15;5.10;;;;;;;17.97;77.20;101308.41;5033066;28;20029;-46
2023/09/11 04:10:55;;;;;;;10.98;5.10;;;;;;;17.88;77.21;101305.28;5033078;28;20033;-44
2023/09/11 04:13:21;;;;;;;13.10;5.32;;;;;;;17.83;77.43;101303.31;5033022;28;20021;-43
2023/09/11 04:15:47;;;;;;;13.30;5.22;;;;;;;17.85;77.31;101305.78;5033044;28;20018;-43
2023/09/11 04:18:14;;;;;;;11.57;4.90;;;;;;;17.73;77.59;101303.13;5032959;28;20108;-43
2023/09/11 04:20:40;;;;;;;19.70;5.82;;;;;;;17.71;77.38;101304.38;5033138;28;20034;-43
2023/09/11 04:23:06;;;;;;;10.45;4.93;;;;;;;17.71;77.59;101301.66;5032967;28;20041;-44
2023/09/11 04:25:33;;;;;;;10.45;5.10;;;;;;;17.80;76.82;101311.09;5032897;28;20033;-44
2023/09/11 04:27:59;;;;;;;15.52;5.25;;;;;;;17.60;77.41;101308.78;5032894;28;20025;-44
2023/09/11 04:30:26;;;;;;;8.80;4.20;;;;;;;17.54;77.93;101304.31;5032902;28;20029;-47
2023/09/11 04:32:52;;;;;;;14.38;4.22;;;;;;;17.68;77.31;101303.00;5032985;28;20045;-43
2023/09/11 04:35:23;;;;;;;13.23;5.00;;;;;;;17.67;76.48;101310.28;5032525;28;20042;-45
2023/09/11 04:37:49;;;;;;;10.13;4.18;;;;;;;17.75;76.56;101308.28;5048158;28;20049;-44
2023/09/11 04:40:16;;;;;;;13.23;4.13;;;;;;;17.71;76.75;101310.59;5033106;28;20048;-43
2023/09/11 04:42:45;;;;;;;11.23;4.03;;;;;;;17.79;76.53;101309.44;5032692;28;20048;-44
2023/09/11 04:45:11;;;;;;;12.68;4.38;;;;;;;17.78;76.51;101315.94;5032635;28;20099;-47
2023/09/11 04:47:37;;;;;;;14.23;4.40;;;;;;;17.89;75.52;101315.06;5032858;28;20026;-48
2023/09/11 04:50:04;;;;;;;9.13;3.63;;;;;;;17.81;76.00;101310.84;5033102;28;20072;-44
2023/09/11 04:52:30;;;;;;;12.18;4.68;;;;;;;17.77;75.91;101309.69;5032960;28;20025;-44
2023/09/11 04:54:57;;;;;;;12.75;5.38;;;;;;;17.67;76.11;101310.28;5033155;28;20025;-44
2023/09/11 04:57:23;;;;;;;14.65;4.45;;;;;;;17.55;77.00;101306.00;5032824;28;20033;-46
2023/09/11 04:59:49;;;;;;;12.07;4.47;;;;;;;17.49;77.56;101312.34;5036585;28;20021;-48
2023/09/11 05:02:15;;;;;;;12.73;4.55;;;;;;;17.37;78.28;101315.09;5036566;28;20028;-48
2023/09/11 05:04:42;;;;;;;13.80;4.53;;;;;;;17.48;77.94;101311.53;5036764;28;20060;-45
2023/09/11 05:07:08;;;;;;;10.52;4.15;;;;;;;17.39;78.66;101308.38;5036543;28;20025;-47
2023/09/11 05:09:35;;;;;;;12.63;4.55;;;;;;;17.46;78.24;101307.44;5036591;28;20413;-44
2023/09/11 05:12:01;;;;;;;8.30;4.00;;;;;;;17.52;78.16;101306.47;5036539;28;20025;-44
2023/09/11 05:14:27;;;;;;;11.68;4.63;;;;;;;17.53;77.67;101313.50;5036207;28;20105;-44
2023/09/11 05:16:53;;;;;;;9.23;4.75;;;;;;;17.38;78.10;101314.88;5036665;28;20466;-44
2023/09/11 05:19:20;;;;;;;13.15;5.15;;;;;;;17.36;78.12;101308.03;5036151;28;20026;-45
2023/09/11 05:21:46;;;;;;;12.40;4.72;;;;;;;17.22;77.88;101312.09;5036138;28;20021;-44
2023/09/11 05:24:12;;;;;;;11.23;4.00;;;;;;;17.29;78.03;101316.28;5036020;28;20035;-46
2023/09/11 05:26:39;;;;;;;12.77;5.40;;;;;;;17.35;77.26;101323.44;5036075;28;20036;-43
2023/09/11 05:29:05;;;;;;;13.55;4.30;;;;;;;17.44;77.00;101314.97;5036315;28;20079;-47
2023/09/11 05:31:31;;;;;;;9.90;3.75;;;;;;;17.31;76.89;101306.03;5035913;28;20030;-46
2023/09/11 05:33:57;;;;;;;15.10;4.97;;;;;;;17.31;76.81;101313.34;5035866;28;20382;-43
2023/09/11 05:36:24;;;;;;;11.32;4.68;;;;;;;17.21;77.27;101316.66;5035815;28;20502;-43
2023/09/11 05:38:50;;;;;;;8.25;4.57;;;;;;;17.12;77.81;101313.50;5035868;28;20037;-43
2023/09/11 05:41:20;;;;;;;10.35;5.40;;;;;;;16.95;79.25;101314.47;5018064;28;20034;-43
2023/09/11 05:43:46;;;;;;;14.45;5.97;;;;;;;17.00;79.21;101315.41;5035718;28;20071;-43
2023/09/11 05:46:12;;;;;;;11.57;5.20;;;;;;;17.13;78.55;101307.03;5035630;28;20462;-45
2023/09/11 05:48:39;;;;;;;13.82;5.57;;;;;;;17.10;78.81;101310.22;5035517;28;20531;-43
2023/09/11 05:51:05;;;;;;;12.55;5.57;;;;;;;16.99;79.04;101313.75;5035625;28;20041;-44
2023/09/11 05:53:31;;;;;;;17.60;5.85;;;;;;;17.04;78.90;101319.25;5035515;28;20377;-45
2023/09/11 05:55:58;;;;;;;10.68;4.72;;;;;;;17.03;78.83;101314.91;5035493;28;20026;-43
2023/09/11 05:58:24;;;;;;;10.00;4.93;;;;;;;17.03;78.61;101320.31;5035455;28;20024;-43
2023/09/11 06:00:51;;;;;;;11.55;4.88;;;;;;;16.91;79.13;101316.81;5035496;28;20068;-44
2023/09/11 06:03:17;;;;;;;10.05;4.28;;;;;;;16.82;79.08;101307.41;5035495;28;20113;-44
2023/09/11 06:05:44;;;;;;;14.52;4.85;;;;;;;16.79;79.20;101314.13;5035435;28;20025;-44
2023/09/11 06:08:11;;;;;;;16.08;5.30;;;;;;;16.83;78.59;101314.47;5034906;28;20060;-43
2023/09/11 06:10:37;;;;;;;10.88;4.03;;;;;;;16.74;79.02;101319.41;5035142;28;20500;-43
2023/09/11 06:13:04;;;;;;;14.77;4.75;;;;;;;16.66;79.52;101321.59;5035339;28;20063;-44
2023/09/11 06:15:30;;;;;;;10.68;4.20;;;;;;;16.72;79.61;101320.72;5035027;28;20021;-44
2023/09/11 06:17:56;;;;;;;13.85;4.93;;;;;;;16.76;79.22;101317.28;5035200;28;20072;-44
2023/09/11 06:20:23;;;;;;;11.88;4.22;;;;;;;16.75;79.04;101325.63;5035050;28;20458;-44
2023/09/11 06:22:49;;;;;;;11.70;4.18;;;;;;;16.71;79.50;101319.03;5035067;28;20057;-47
2023/09/11 06:25:16;;;;;;;13.50;4.55;;;;;;;16.86;78.61;101319.41;5035029;28;20056;-44
2023/09/11 06:27:42;;;;;;;14.57;4.10;;;;;;;16.84;78.73;101327.75;5017676;28;20021;-45
2023/09/11 06:30:09;;;;;;;18.17;4.60;;;;;;;16.83;78.39;101319.88;5034916;28;20079;-45
2023/09/11 06:32:35;;;;;;;13.10;3.95;;;;;;;16.81;78.17;101322.81;5034726;28;20083;-44
2023/09/11 06:35:04;;;;;;;10.05;4.30;;;;;;;16.82;78.75;101329.88;5034669;28;20169;-46
2023/09/11 06:37:30;;;;;;;11.63;3.78;;;;;;;16.81;78.69;101327.41;5034775;28;20022;-46
2023/09/11 06:39:57;;;;;;;12.98;4.63;;;;;;;16.82;78.21;101337.16;5034708;28;20101;-44
2023/09/11 06:42:25;;;;;;;9.77;3.63;;;;;;;16.83;78.17;101328.00;5034572;28;20025;-45
2023/09/11 06:44:52;;;;;;;10.82;3.83;;;;;;;16.76;78.38;101329.97;5034563;28;20486;-44
2023/09/11 06:47:19;;;;;;;10.43;4.20;;;;;;;16.80;78.05;101328.47;5034602;28;20036;-44
2023/09/11 06:49:45;;;;;;;13.07;4.53;;;;;;;16.85;78.44;101333.97;5034350;28;20025;-44
2023/09/11 06:52:11;;;;;;;10.50;4.07;;;;;;;16.83;78.10;101326.13;5034483;28;20026;-44
2023/09/11 06:54:38;;;;;;;6.00;3.15;;;;;;;16.84;77.87;101327.75;5034754;28;20381;-43
2023/09/11 06:57:06;;;;;;;9.68;3.70;;;;;;;16.77;78.18;101332.47;5034304;28;20040;-43
2023/09/11 06:59:33;;;;;;;9.52;3.85;;;;;;;16.83;77.85;101328.00;5049765;28;20390;-43
2023/09/11 07:02:00;;;;;;;11.10;4.28;;;;;;;16.60;78.71;101318.81;5034299;28;20025;-45
2023/09/11 07:04:26;;;;;;;9.02;3.90;;;;;;;16.72;78.62;101323.41;5034048;28;20057;-45
2023/09/11 07:06:53;;;;;;;13.07;3.90;;;;;;;16.70;78.46;101320.06;5034183;28;20029;-44
2023/09/11 07:09:19;;;;;;;11.23;4.05;;;;;;;16.55;79.21;101325.97;5034188;28;20021;-46
2023/09/11 07:11:46;;;;;;;9.65;4.57;;;;;;;16.43;80.60;101325.09;5034072;28;20200;-46
2023/09/11 07:14:22;;;;;;;10.25;4.20;;;;;;;16.53;80.70;101320.78;5034294;28;20063;-44
2023/09/11 07:16:49;;;;;;;8.75;4.30;;;;;;;16.69;80.11;101313.03;5033977;28;20423;-45
2023/09/11 07:19:16;;;;;;;11.95;4.40;;;;;;;16.87;79.43;101308.34;5034276;28;20030;-45
2023/09/11 07:21:44;;;;;;;14.90;4.65;;;;;;;16.82;80.16;101302.84;5033157;28;20074;-43
2023/09/11 07:24:11;;;;;;;12.13;5.07;;;;;;;16.67;81.85;101309.75;5034164;28;20056;-43
2023/09/11 07:26:37;;;;;;;10.57;4.25;;;;;;;16.52;82.10;101315.59;5034184;28;20037;-45
2023/09/11 07:29:04;;;;;;;11.73;4.45;;;;;;;16.68;81.40;101322.19;5034291;28;20052;-45
2023/09/11 07:31:32;;;;;;;14.90;4.78;;;;;;;16.56;81.88;101328.44;5033945;28;20029;-44
2023/09/11 07:33:58;;;;;;;13.85;4.18;;;;;;;16.50;82.41;101320.44;5033698;28;20432;-44
2023/09/11 07:36:27;;;;;;;15.40;4.53;;;;;;;16.48;82.02;101317.94;5033468;28;20044;-44
2023/09/11 07:38:53;;;;;;;11.10;4.28;;;;;;;16.52;82.27;101308.31;5033480;28;20029;-46
2023/09/11 07:41:20;;;;;;;10.38;4.10;;;;;;;16.71;81.31;101321.75;5033523;28;20057;-44
2023/09/11 07:43:50;;;;;;;11.68;4.57;;;;;;;16.47;81.92;101316.31;5033613;28;20026;-46
2023/09/11 07:46:22;;;;;;;9.85;4.05;;;;;;;16.48;81.95;101320.66;5033785;28;20021;-44
2023/09/11 07:48:51;;;;;;;11.57;3.85;;;;;;;16.58;81.30;101323.59;5033974;28;20087;-44
2023/09/11 07:51:18;;;;;;;14.85;4.50;;;;;;;16.73;80.56;101314.25;5033205;28;20057;-44
2023/09/11 07:53:44;;;;;;;12.27;4.40;;;;;;;16.66;80.68;101325.16;5033641;28;20529;-45
2023/09/11 07:56:11;;;;;;;10.77;4.57;;;;;;;16.57;80.56;101326.53;5033314;28;20018;-44
2023/09/11 07:58:38;;;;;;;8.82;3.90;;;;;;;16.69;80.40;101331.94;5033246;28;20137;-44
2023/09/11 08:01:04;;;;;;;13.07;4.40;;;;;;;16.70;80.56;101328.19;5033348;28;20025;-46
2023/09/11 08:03:35;;;;;;;14.50;4.55;;;;;;;16.62;80.08;101327.47;5033093;28;20463;-44
2023/09/11 08:06:04;;;;;;;11.80;4.15;;;;;;;16.50;80.79;101329.34;5034042;28;20044;-44
2023/09/11 08:08:30;;;;;;;10.18;4.13;;;;;;;16.36;81.24;101319.81;5033073;28;20392;-43
2023/09/11 08:10:56;;;;;;;10.57;4.10;;;;;;;16.34;81.54;101327.34;5032974;28;20040;-43
2023/09/11 08:13:22;;;;;;;11.52;4.70;;;;;;;16.50;80.26;101331.25;5033058;28;20030;-44
2023/09/11 08:15:49;;;;;;;11.02;4.60;;;;;;;16.47;80.01;101327.09;5033279;28;20409;-46
2023/09/11 08:18:15;;;;;;;12.15;5.00;;;;;;;16.40;80.64;101331.81;5033083;28;20197;-46
2023/09/11 08:20:45;;;;;;;9.90;4.05;;;;;;;16.37;80.92;101324.97;5032983;28;20025;-47
2023/09/11 08:23:12;;;;;;;8.73;3.95;;;;;;;16.36;80.90;101336.84;5032960;28;20108;-44
2023/09/11 08:25:38;;;;;;;12.88;4.78;;;;;;;16.34;80.85;101332.75;5032897;28;20021;-44
2023/09/11 08:28:05;;;;;;;9.70;4.43;;;;;;;16.36;80.24;101336.84;5032975;28;20466;-45
2023/09/11 08:30:31;;;;;;;9.32;4.53;;;;;;;16.47;80.08;101332.50;5032808;28;20030;-43
2023/09/11 08:32:58;;;;;;;11.52;4.85;;;;;;;16.31;80.38;101331.31;5037975;28;20021;-44
2023/09/11 08:35:24;;;;;;;9.27;4.38;;;;;;;16.33;80.42;101336.50;5039655;28;20477;-44
2023/09/11 08:37:50;;;;;;;14.95;4.50;;;;;;;16.43;80.06;101333.22;5039341;28;20040;-47
2023/09/11 08:40:17;;;;;;;7.93;4.55;;;;;;;16.36;80.18;101330.63;5039522;28;20470;-44
2023/09/11 08:42:43;;;;;;;11.93;4.55;;;;;;;16.22;80.40;101329.19;5039431;28;20426;-44
2023/09/11 08:45:10;;;;;;;10.32;4.20;;;;;;;16.25;79.99;101332.25;5039367;28;20031;-44
2023/09/11 08:47:39;;;;;;;10.50;4.03;;;;;;;16.24;79.96;101335.19;5039227;28;20100;-43
2023/09/11 08:50:06;;;;;;;13.35;4.43;;;;;;;16.11;81.13;101320.00;5039499;28;20488;-43
2023/09/11 08:52:35;;;;;;;13.98;4.25;;;;;;;16.08;82.52;101318.56;5039336;28;20083;-42
2023/09/11 08:55:06;;;;;;;13.45;4.97;;;;;;;16.19;82.28;101310.75;5039192;28;20100;-44
2023/09/11 08:57:33;;;;;;;12.73;4.07;;;;;;;16.29;82.26;101319.91;5039335;28;20025;-43
2023/09/11 09:00:06;;;;;;;12.07;5.25;;;;;;;16.08;82.72;101318.56;5039175;28;20062;-46
2023/09/11 09:02:33;;;;;;;7.95;3.90;;;;;;;16.25;82.41;101320.63;5036180;28;20076;-44
2023/09/11 09:05:03;;;;;;;10.27;4.50;;;;;;;16.06;82.82;101318.00;5039079;28;20025;-45
2023/09/11 09:07:34;;;;;;;8.82;4.00;;;;;;;15.94;83.03;101321.72;5039097;28;20021;-43
2023/09/11 09:10:02;;;;;;;12.65;4.40;;;;;;;16.08;82.44;101317.75;5039078;28;20053;-44
2023/09/11 09:12:29;;;;;;;13.27;4.65;;;;;;;15.98;82.80;101322.88;5039016;28;20079;-43
2023/09/11 09:14:56;;;;;;;11.73;4.10;;;;;;;15.92;83.08;101321.94;5039138;28;20112;-44
2023/09/11 09:17:22;;;;;;;11.73;3.90;;;;;;;15.94;82.67;101327.13;5039383;28;20026;-44
2023/09/11 09:19:49;;;;;;;9.90;4.50;;;;;;;15.87;82.78;101327.19;5038909;28;20371;-45
2023/09/11 09:22:17;;;;;;;9.70;4.15;;;;;;;15.89;82.77;101325.09;5038204;28;20028;-44
2023/09/11 09:24:54;;;;;;;11.48;4.18;;;;;;;15.89;82.94;101318.88;5039304;28;20088;-42
2023/09/11 09:27:28;;;;;;;8.55;3.75;;;;;;;15.87;82.88;101315.56;5038972;28;20481;-43
2023/09/11 09:29:54;;;;;;;8.38;4.07;;;;;;;15.83;82.94;101317.94;5038857;28;20497;-41
2023/09/11 09:32:21;;;;;;;12.20;4.15;;;;;;;16.00;81.89;101321.63;5039191;28;20025;-43
2023/09/11 09:34:51;;;;;;;11.38;4.28;;;;;;;15.81;81.91;101317.31;5038708;28;20045;-45
2023/09/11 09:37:19;;;;;;;9.30;3.95;;;;;;;15.96;82.12;101320.44;5038884;28;20049;-44
2023/09/11 09:39:48;;;;;;;10.48;4.05;;;;;;;15.77;82.12;101311.56;5035811;28;20057;-44
2023/09/11 09:42:15;;;;;;;8.13;3.72;;;;;;;15.75;82.50;101310.94;5038799;28;20457;-44
2023/09/11 09:44:55;;;;;;;12.88;4.35;;;;;;;15.74;82.94;101305.78;5035608;28;20076;-43
2023/09/11 09:47:22;;;;;;;13.40;4.45;;;;;;;15.70;83.24;101301.91;5036207;28;20072;-44
2023/09/11 09:49:54;;;;;;;12.00;4.68;;;;;;;15.70;83.95;101299.19;5035556;28;20026;-43
2023/09/11 09:52:25;;;;;;;9.40;4.05;;;;;;;15.73;83.28;101298.75;5035541;28;20096;-45
2023/09/11 09:54:56;;;;;;;11.52;4.55;;;;;;;15.68;83.77;101298.63;5035661;28;20504;-42
2023/09/11 09:57:25;;;;;;;14.45;4.60;;;;;;;15.68;83.90;101298.63;5035493;28;20034;-46
2023/09/11 09:59:54;;;;;;;14.80;4.80;;;;;;;15.63;84.54;101298.47;5035739;28;20029;-43
2023/09/11 10:02:29;;;;;;;14.88;5.75;;;;;;;15.47;84.67;101294.50;5017999;28;20021;-42
2023/09/11 10:04:57;;;;;;;14.52;5.55;;;;;;;15.40;85.28;101293.75;5035946;28;20033;-43
2023/09/11 10:07:37;;;;;;;10.00;4.78;;;;;;;15.64;84.52;101297.41;5035351;28;20052;-42
2023/09/11 10:10:22;;;;;;;10.77;4.88;;;;;;;15.64;84.26;101300.94;5035227;28;20086;-44
2023/09/11 10:13:01;;;;;;;8.40;4.35;;;;;;;15.65;84.11;101301.75;5035049;28;20044;-43
2023/09/11 10:15:29;;;;;;;10.80;5.40;;;;;;;15.62;84.58;101302.19;5035105;28;20029;-44
2023/09/11 10:17:56;;;;;;;8.27;4.07;;;;;;;15.59;84.62;101304.28;5035079;28;20079;-43
2023/09/11 10:20:24;;;;;;;7.90;4.35;;;;;;;15.57;84.14;101303.69;5034991;28;20545;-43
2023/09/11 10:23:05;;;;;;;10.70;4.63;;;;;;;15.54;84.25;101312.22;5034914;28;20068;-44
2023/09/11 10:25:39;;;;;;;14.95;4.93;;;;;;;15.29;85.21;101312.34;5035201;28;20509;-45
2023/09/11 10:28:08;;;;;;;9.70;5.18;;;;;;;15.38;85.12;101302.09;5034888;28;20105;-44
2023/09/11 10:31:04;;;;;;;11.13;4.45;;;;;;;15.48;84.93;101302.34;5034707;28;20030;-42
2023/09/11 10:33:33;;;;;;;9.35;3.80;;;;;;;15.37;84.82;101297.72;5034869;28;20025;-43
2023/09/11 10:36:08;;;;;;;10.10;4.00;;;;;;;15.39;85.08;101298.34;5034455;28;20045;-43
2023/09/11 10:38:36;;;;;;;11.27;3.67;;;;;;;15.43;84.86;101302.19;5034996;28;20347;-45
2023/09/11 10:41:05;;;;;;;9.70;4.30;;;;;;;15.26;85.54;101296.59;5034563;28;20083;-43
2023/09/11 10:43:31;;;;;;;7.15;3.83;;;;;;;15.19;85.75;101303.13;5034725;28;20033;-43
2023/09/11 10:46:13;;;;;;;7.50;3.92;;;;;;;15.20;85.43;101305.59;5034557;28;20072;-42
2023/09/11 10:48:39;;;;;;;11.43;3.90;;;;;;;15.13;86.14;101295.94;5034489;28;20087;-44
2023/09/11 10:51:06;;;;;;;11.80;4.20;;;;;;;15.19;85.50;101297.75;5034590;28;20091;-43
2023/09/11 10:53:33;;;;;;;8.38;3.70;;;;;;;15.04;85.80;101300.81;5034212;28;20025;-44
2023/09/11 10:56:05;;;;;;;9.35;4.25;;;;;;;15.27;85.21;101292.06;5033187;28;20018;-43
2023/09/11 10:58:31;;;;;;;10.63;4.90;;;;;;;15.09;86.55;101292.03;5034346;28;20057;-43
2023/09/11 11:00:58;;;;;;;15.18;4.47;;;;;;;15.16;86.21;101296.34;5034310;28;20037;-43
2023/09/11 11:03:30;;;;;;;9.07;4.40;;;;;;;15.25;86.50;101292.25;5034252;28;20021;-44
2023/09/11 11:05:59;;;;;;;11.43;4.40;;;;;;;15.17;87.11;101295.28;5034149;28;20025;-42
2023/09/11 11:08:25;;;;;;;11.18;4.57;;;;;;;15.24;87.36;101284.41;5034156;28;20026;-46
2023/09/11 11:10:56;;;;;;;9.93;4.38;;;;;;;15.19;87.49;101282.38;5034364;28;20083;-43
2023/09/11 11:13:23;;;;;;;9.95;4.13;;;;;;;15.30;87.60;101284.31;5034036;28;20458;-43
2023/09/11 11:16:15;;;;;;;12.70;5.13;;;;;;;15.07;88.95;101289.59;5033999;28;20021;-43
2023/09/11 11:18:42;;;;;;;15.48;4.78;;;;;;;15.16;89.12;101290.13;5034448;28;20032;-42
2023/09/11 11:21:10;;;;;;;17.15;5.38;;;;;;;15.21;88.79;101284.84;5033936;28;20029;-43
2023/09/11 11:23:53;;;;;;;12.75;5.07;;;;;;;15.23;88.78;101290.84;5033861;28;20026;-42